Aviation Digital Data Service (ADDS)

Output produced by METARs form (2117 UTC 20 October 2018)
found at http://www.aviationweather.gov/metar/data/
 
TAF KIAB 201800Z 2018/2124 34010G15KT 9999 SKC QNH3032INS 
     BECMG 2023/2024 VRB06KT 9999 SKC QNH3030INS 
     BECMG 2114/2115 16012KT 9999 SKC QNH3020INS TX21/2021Z TN04/2112Z
       
KIAD 202043Z 2021/2124 28010G16KT P6SM BKN040 
     FM202200 28009KT P6SM SCT045 
     FM210300 27010G19KT P6SM BKN070 
     FM210900 30018G34KT P6SM SCT035 
     FM211200 32017G32KT P6SM FEW050 
     FM212200 31013G24KT P6SM FEW250
       
KIAG 202113Z 2021/2118 30010KT P6SM -SHRA BKN060 
     FM202200 34009KT 6SM -RA OVC040 
     FM210100 35012G18KT P6SM OVC040 
     FM210600 32015G21KT P6SM VCSH BKN040 
     FM211400 31014G20KT P6SM BKN040
       
KIAH 202048Z 2021/2124 36013KT P6SM OVC009 
     FM210300 02011KT P6SM BKN015 BKN250 
     FM210600 02008KT P6SM SCT030 SCT250 
     FM211300 04013KT P6SM BKN250 
     FM211500 04015KT P6SM BKN250 
     FM212300 04008KT P6SM BKN250
       
KICT 201720Z 2018/2118 36010KT P6SM SKC 
     FM210100 04006KT P6SM SKC 
     FM211100 16005KT P6SM SKC 
     FM211600 19012KT P6SM SKC
       
KIDA 201720Z 2018/2118 36005KT P6SM SKC 
     FM202100 VRB03KT P6SM SKC 
     FM210300 12006KT P6SM SCT100 BKN180
       
KIFP 201734Z 2018/2118 36018G26KT P6SM BKN090 
     FM202200 35011KT P6SM OVC080 
     FM210400 01006KT P6SM VCSH OVC070
       
KILG 201733Z 2018/2118 27010KT P6SM BKN050 
     FM202000 28008KT P6SM SCT040 BKN080 
     FM210500 28010KT P6SM BKN060 
     FM210800 31014G22KT P6SM BKN040 
     FM211100 31018G30KT P6SM SCT035
       
KILM 201723Z 2018/2118 25014G24KT P6SM VCSH BKN025 BKN035 BKN060 
     FM202000 25014G24KT 3SM SHRA BKN025 
     FM210100 28009KT P6SM BKN030 
     FM210300 31010G16KT P6SM SKC 
     FM211300 33015G24KT P6SM SKC
       
KILN 201720Z 2018/2118 26021G30KT P6SM BKN050 
     FM202100 29023G39KT P6SM VCSH BKN050 
     FM202300 30023G42KT P6SM VCSH SCT020 BKN040 
     FM210200 31020G34KT P6SM VCSH BKN030 
     FM210400 32018G30KT P6SM SCT040 
     FM210700 32009KT P6SM SCT040 
     FM211300 30006KT P6SM SCT030
       
KIND 202026Z 2020/2124 30025G40KT P6SM BKN070 
     FM202300 31021G32KT P6SM SCT080 
     FM210600 32009KT P6SM FEW250
       
TAF AMD KINS 202002Z 2020/2121 09009KT 9999 BKN080 QNH3001INS 
     BECMG 2102/2103 03009KT 8000 -SHRA BKN050 BKN100 QNH3003INS 
     BECMG 2114/2115 08009KT 8000 -SHRA BKN040 BKN080 QNH3002INS TS OMTNS S 
     BECMG 2120/2121 10009KT 9999 NSW SCT050 BKN100 QNH3001INS TX26/2023Z
TN10/2113Z LAST NO AMDS AFT 2022 NEXT 2107
       
KINT 201737Z 2018/2118 VRB04KT P6SM -RA FEW015 BKN100 
     FM202000 27009KT P6SM SCT200 
     FM210500 31013G23KT P6SM FEW200 
     FM211200 32010KT P6SM SKC
       
KINW 201720Z 2018/2118 11008KT P6SM BKN060 
     FM210100 VRB06KT P6SM BKN060
       
KIPL 201728Z 2018/2118 36007KT P6SM FEW090 
     FM210300 29007KT P6SM FEW090 
     FM211200 VRB05KT P6SM SKC
       
KIPT 202108Z 2021/2118 24008KT P6SM SCT040 BKN090 
     FM202200 26012G19KT P6SM VCSH BKN050 
     FM210400 29014G22KT P6SM VCSH OVC030
       
KISM 201737Z 2018/2118 25004KT P6SM SCT040 
     FM202000 27005KT P6SM VCSH SCT045 BKN080 
     FM210200 28004KT P6SM FEW050 SCT250 
     FM211400 01012G18KT P6SM FEW040 BKN120
       
KISN 201738Z 2018/2118 16007KT P6SM SKC 
     FM210300 17005KT P6SM FEW250 WS015/24035KT 
     FM210700 32006KT P6SM SKC
       
KISO 201731Z 2018/2118 26009KT 6SM -SHRA OVC020 
     FM202200 28007KT P6SM SCT020 BKN040 
     FM210500 31014G24KT P6SM SKC AMD LTD TO CLD VIS AND WIND
       
KISP 201916Z 2019/2118 26013KT P6SM SCT025 BKN035 BKN080 
     FM202200 27010KT P6SM SCT050 BKN100 
     FM210200 27008KT P6SM BKN080 
     FM210900 30011G17KT P6SM VCSH SCT025 SCT050 BKN060 
     FM211100 32018G27KT P6SM SCT025 SCT050 SCT100 
     FM211500 33021G30KT P6SM FEW060 SCT150
       
KITH 202052Z 2021/2118 31007KT 5SM -SHRA BR BKN035 OVC080 
     TEMPO 2021/2101 2SM SHRA BR OVC018 
     FM210400 31006KT P6SM OVC025 
     FM210800 32010G20KT 3SM -SHSNRA BR OVC025 
     FM211300 32010G20KT P6SM BKN025
       
KIWA 201728Z 2018/2118 12013G22KT P6SM FEW090 FEW250 
     FM210100 12010KT P6SM VCSH SCT080 SCT250 
     FM210800 10007KT P6SM VCSH BKN080 BKN250 WS020/11042KT 
     FM211600 11013G20KT P6SM VCSH BKN080 BKN250
       
KIXD 201723Z 2018/2118 33015G25KT P6SM SKC 
     FM210000 02010KT P6SM SKC 
     FM210600 14004KT P6SM SKC